Time;durP1;ratioP1;P1;durP2;ratioP2;P2;SDS_P1;SDS_P2;PMS_P1;PMS_P2;Temp;Humidity;BMP_temperature;BMP_pressure;BME280_temperature;BME280_humidity;BME280_pressure;Samples;Min_cycle;Max_cycle;Signal;HPM_P1;HPM_P2
2021/06/09 00:00:47;;;;;;;9.88;7.95;;;17.80;86.10;;;;;;5038206;28;20017;-78
2021/06/09 00:03:13;;;;;;;8.52;7.72;;;17.80;86.40;;;;;;5037312;28;20036;-77
2021/06/09 00:05:39;;;;;;;9.07;7.88;;;17.80;86.40;;;;;;5035346;28;20030;-77
2021/06/09 00:08:05;;;;;;;9.35;7.50;;;17.80;86.50;;;;;;5035403;28;20515;-78
2021/06/09 00:10:32;;;;;;;9.55;8.45;;;17.80;86.50;;;;;;5033948;28;20104;-80
2021/06/09 00:12:57;;;;;;;8.70;7.90;;;17.80;86.60;;;;;;5033729;28;20021;-80
2021/06/09 00:15:24;;;;;;;10.88;8.68;;;17.80;86.70;;;;;;5033355;28;20028;-79
2021/06/09 00:17:49;;;;;;;10.70;8.00;;;17.70;86.80;;;;;;5032477;28;20026;-79
2021/06/09 00:20:19;;;;;;;10.60;8.45;;;17.70;86.90;;;;;;5031269;28;20017;-81
2021/06/09 00:22:46;;;;;;;9.88;8.88;;;17.70;87.70;;;;;;5032491;28;20097;-80
2021/06/09 00:25:16;;;;;;;12.52;8.60;;;17.70;87.20;;;;;;5030891;28;20026;-80
2021/06/09 00:27:44;;;;;;;11.85;8.18;;;17.70;87.30;;;;;;5031131;28;20026;-80
2021/06/09 00:30:12;;;;;;;10.60;7.57;;;17.70;87.50;;;;;;5032319;28;20013;-85
2021/06/09 00:32:38;;;;;;;13.43;8.05;;;17.70;87.60;;;;;;5042127;28;20025;-84
2021/06/09 00:35:06;;;;;;;10.32;8.73;;;17.60;87.60;;;;;;5054805;28;20018;-84
2021/06/09 00:37:31;;;;;;;11.45;8.68;;;17.60;87.70;;;;;;5034135;28;20017;-85
2021/06/09 00:39:57;;;;;;;10.25;8.23;;;17.60;87.70;;;;;;5034229;28;20559;-85
2021/06/09 00:42:23;;;;;;;9.43;8.07;;;17.60;87.80;;;;;;5034352;28;20463;-86
2021/06/09 00:44:49;;;;;;;9.73;8.57;;;17.60;88.00;;;;;;5034157;28;20362;-86
2021/06/09 00:47:23;;;;;;;10.05;8.57;;;17.50;88.10;;;;;;5037809;28;20492;-86
2021/06/09 00:49:50;;;;;;;11.88;8.50;;;17.50;88.40;;;;;;5037502;28;20057;-86
2021/06/09 00:52:21;;;;;;;12.02;8.75;;;17.50;88.40;;;;;;5036895;28;20033;-81
2021/06/09 00:54:47;;;;;;;9.55;8.57;;;17.50;88.50;;;;;;5036452;28;20029;-81
2021/06/09 00:57:13;;;;;;;11.30;9.35;;;17.40;88.50;;;;;;5036582;28;20089;-81
2021/06/09 00:59:39;;;;;;;10.85;8.15;;;17.40;88.70;;;;;;5035278;28;20072;-81
2021/06/09 01:02:05;;;;;;;9.50;8.60;;;17.40;88.80;;;;;;5036043;28;20029;-80
2021/06/09 01:04:31;;;;;;;12.70;8.77;;;17.40;88.90;;;;;;5035134;28;20037;-81
2021/06/09 01:07:00;;;;;;;10.35;9.25;;;17.40;88.90;;;;;;5036810;28;20034;-81
2021/06/09 01:09:26;;;;;;;13.48;8.98;;;17.40;89.10;;;;;;5037080;28;20376;-81
2021/06/09 01:11:53;;;;;;;11.35;8.95;;;17.40;89.10;;;;;;5038046;28;20018;-80
2021/06/09 01:14:19;;;;;;;12.57;8.57;;;17.30;89.10;;;;;;5036240;28;20075;-81
2021/06/09 01:16:46;;;;;;;10.90;8.20;;;17.40;89.20;;;;;;5035990;28;20025;-80
2021/06/09 01:19:12;;;;;;;14.23;8.55;;;17.30;89.20;;;;;;5036370;28;20754;-80
2021/06/09 01:21:38;;;;;;;12.98;8.43;;;17.30;89.20;;;;;;5036332;28;20017;-81
2021/06/09 01:24:04;;;;;;;10.90;8.55;;;17.30;89.30;;;;;;5036055;28;20051;-81
2021/06/09 01:26:31;;;;;;;9.93;8.45;;;17.30;89.30;;;;;;5035855;28;20403;-80
2021/06/09 01:28:59;;;;;;;11.10;8.23;;;17.30;89.40;;;;;;5036315;28;20033;-80
2021/06/09 01:31:26;;;;;;;11.23;7.88;;;17.20;89.50;;;;;;5034536;28;20455;-78
2021/06/09 01:33:52;;;;;;;10.15;8.68;;;17.20;89.70;;;;;;5035011;28;20035;-78
2021/06/09 01:36:21;;;;;;;10.70;8.43;;;17.20;89.70;;;;;;5034792;28;20376;-78
2021/06/09 01:38:47;;;;;;;9.15;8.07;;;17.20;89.80;;;;;;5035226;28;20024;-78
2021/06/09 01:41:13;;;;;;;9.00;7.93;;;17.20;89.90;;;;;;5035509;28;20097;-79
2021/06/09 01:43:39;;;;;;;9.75;8.75;;;17.20;89.90;;;;;;5035795;28;20033;-79
2021/06/09 01:46:04;;;;;;;10.00;8.88;;;17.20;90.00;;;;;;5036012;28;20117;-78
2021/06/09 01:48:30;;;;;;;10.45;8.32;;;17.20;90.00;;;;;;5035688;28;20029;-76
2021/06/09 01:50:56;;;;;;;10.57;7.57;;;17.20;90.00;;;;;;5038797;28;20029;-78
2021/06/09 01:53:22;;;;;;;13.65;7.95;;;17.30;90.10;;;;;;5037308;28;20052;-77
2021/06/09 01:55:48;;;;;;;11.50;8.55;;;17.30;90.10;;;;;;5039299;28;20017;-78
2021/06/09 01:58:14;;;;;;;10.68;7.65;;;17.30;90.10;;;;;;5036703;28;20013;-78
2021/06/09 02:00:46;;;;;;;8.65;7.45;;;17.40;90.00;;;;;;5036210;28;20495;-78
2021/06/09 02:03:14;;;;;;;13.60;8.25;;;17.40;90.00;;;;;;5036464;28;20483;-78
2021/06/09 02:05:39;;;;;;;8.88;7.82;;;17.50;90.10;;;;;;5046772;28;20037;-85
2021/06/09 02:08:08;;;;;;;9.38;7.72;;;17.70;90.30;;;;;;5057490;28;20010;-85
2021/06/09 02:10:35;;;;;;;9.73;7.55;;;18.00;90.40;;;;;;5039449;28;20564;-86
2021/06/09 02:13:05;;;;;;;10.52;7.82;;;18.50;90.10;;;;;;5039735;28;20048;-86
2021/06/09 02:15:31;;;;;;;9.15;7.72;;;19.00;88.90;;;;;;5040113;28;20125;-86
2021/06/09 02:18:09;;;;;;;7.40;6.47;;;19.50;87.20;;;;;;5037206;28;20483;-85
2021/06/09 02:20:45;;;;;;;7.60;6.35;;;20.10;85.00;;;;;;5034807;28;20013;-78
2021/06/09 02:23:27;;;;;;;7.63;6.22;;;20.70;83.60;;;;;;5032996;28;20045;-78
2021/06/09 02:25:58;;;;;;;7.85;6.55;;;21.40;80.80;;;;;;5033190;28;20061;-78
2021/06/09 02:28:30;;;;;;;8.80;6.97;;;22.10;78.70;;;;;;5032937;28;20030;-78
2021/06/09 02:30:55;;;;;;;7.78;6.10;;;22.70;76.30;;;;;;5033423;28;20032;-77
2021/06/09 02:33:24;;;;;;;6.78;6.10;;;23.30;74.40;;;;;;5033014;28;20029;-78
2021/06/09 02:35:52;;;;;;;6.78;5.88;;;23.90;72.10;;;;;;5033772;28;20079;-78
2021/06/09 02:38:19;;;;;;;9.38;5.65;;;24.50;70.10;;;;;;5034151;28;20072;-79
2021/06/09 02:40:48;;;;;;;6.38;5.78;;;25.10;68.20;;;;;;5034379;28;20142;-79
2021/06/09 02:43:15;;;;;;;9.48;5.20;;;25.60;66.30;;;;;;5034347;28;20029;-79
2021/06/09 02:45:46;;;;;;;6.72;5.30;;;26.20;64.90;;;;;;5035564;28;20111;-86
2021/06/09 02:48:14;;;;;;;8.75;5.45;;;26.70;63.20;;;;;;5032952;28;20069;-86
2021/06/09 02:50:40;;;;;;;10.95;5.28;;;27.20;62.10;;;;;;5034437;28;20476;-86
2021/06/09 02:53:06;;;;;;;5.32;4.78;;;27.80;60.70;;;;;;5034007;28;20112;-86
2021/06/09 02:55:50;;;;;;;5.57;4.85;;;28.40;59.50;;;;;;5034420;28;20476;-86
2021/06/09 02:58:32;;;;;;;8.43;5.20;;;29.00;57.70;;;;;;5042279;28;20096;-86
2021/06/09 03:01:05;;;;;;;6.03;4.78;;;29.60;56.50;;;;;;5058803;28;20010;-86
2021/06/09 03:03:46;;;;;;;5.50;5.00;;;30.20;55.50;;;;;;5051781;28;20026;-87
2021/06/09 03:06:37;;;;;;;8.07;6.07;;;30.80;53.90;;;;;;5053422;28;20048;-85
2021/06/09 03:09:14;;;;;;;5.20;4.80;;;31.40;52.60;;;;;;5049726;28;20426;-86
2021/06/09 03:11:51;;;;;;;7.28;5.35;;;32.00;51.70;;;;;;5052306;28;20033;-88
2021/06/09 03:17:02;;;;;;;;;;;33.10;49.30;;;;;;5038687;28;20059;-88
2021/06/09 03:20:01;;;;;;;7.78;5.53;;;33.50;50.80;;;;;;5036159;28;19905;-89
2021/06/09 03:22:38;;;;;;;8.95;5.00;;;34.00;48.50;;;;;;5035648;28;20077;-88
2021/06/09 03:25:04;;;;;;;8.20;4.53;;;34.50;47.50;;;;;;5034421;28;20508;-89
2021/06/09 03:27:49;;;;;;;6.15;4.85;;;34.90;46.80;;;;;;5035345;28;20025;-88
2021/06/09 03:30:16;;;;;;;8.93;5.05;;;35.30;45.50;;;;;;5035974;28;20025;-88
2021/06/09 03:32:55;;;;;;;12.13;5.03;;;35.60;45.10;;;;;;5035779;28;20029;-86
2021/06/09 03:35:35;;;;;;;6.63;4.78;;;36.00;44.20;;;;;;5034498;28;20026;-88
2021/06/09 03:38:05;;;;;;;6.57;4.78;;;36.30;43.60;;;;;;5035914;28;20051;-87
2021/06/09 03:40:36;;;;;;;6.20;4.73;;;36.70;43.30;;;;;;5036959;28;20101;-87
2021/06/09 03:43:09;;;;;;;5.82;4.30;;;37.00;42.80;;;;;;5035992;28;20017;-87
2021/06/09 03:45:44;;;;;;;10.75;4.80;;;37.40;42.10;;;;;;5073016;28;20037;-88
2021/06/09 03:48:11;;;;;;;9.77;4.88;;;37.70;41.60;;;;;;5035673;28;20022;-82
2021/06/09 03:50:39;;;;;;;9.00;5.00;;;38.00;41.40;;;;;;5033460;28;20460;-80
2021/06/09 03:53:06;;;;;;;5.22;4.50;;;38.30;40.80;;;;;;5035276;28;20464;-81
2021/06/09 03:55:36;;;;;;;5.50;4.25;;;38.50;40.50;;;;;;5041991;28;20028;-80
2021/06/09 05:51:23;;;;;;;3.90;3.50;;;47.30;31.00;;;;;;5035342;28;20083;-81
2021/06/09 05:53:55;;;;;;;5.40;3.78;;;47.40;30.90;;;;;;5034442;28;20026;-81
2021/06/09 05:56:22;;;;;;;4.40;3.95;;;47.30;30.50;;;;;;5035915;28;20103;-81
2021/06/09 05:58:48;;;;;;;6.32;3.70;;;47.20;30.50;;;;;;5035560;28;20025;-81
2021/06/09 06:01:14;;;;;;;3.03;2.83;;;47.00;30.50;;;;;;5034050;28;20022;-82
2021/06/09 06:03:42;;;;;;;3.60;3.30;;;46.90;30.50;;;;;;5035026;28;20113;-82
2021/06/09 06:06:13;;;;;;;3.50;3.20;;;47.00;30.60;;;;;;5034535;28;20064;-82
2021/06/09 06:08:41;;;;;;;5.80;4.72;;;46.90;30.50;;;;;;5035039;28;20677;-81
2021/06/09 06:11:11;;;;;;;3.67;3.35;;;46.90;30.60;;;;;;5035532;28;20403;-81
2021/06/09 06:13:39;;;;;;;4.30;4.00;;;46.90;30.50;;;;;;5033257;28;20030;-82
2021/06/09 06:16:07;;;;;;;4.55;3.45;;;46.90;30.50;;;;;;5034633;28;20032;-83
2021/06/09 06:18:38;;;;;;;4.07;3.53;;;46.80;30.40;;;;;;5034887;28;20487;-83
2021/06/09 06:21:07;;;;;;;4.95;3.20;;;46.80;30.60;;;;;;5034113;28;20615;-82
2021/06/09 06:23:36;;;;;;;6.13;3.38;;;46.70;30.60;;;;;;5034977;28;20527;-82
2021/06/09 06:26:03;;;;;;;3.50;3.20;;;46.60;30.50;;;;;;5033317;28;20024;-82
2021/06/09 06:28:31;;;;;;;4.05;3.20;;;46.50;30.50;;;;;;5033386;28;20074;-84
2021/06/09 06:30:59;;;;;;;4.13;3.30;;;46.50;30.40;;;;;;5033247;28;20033;-83
2021/06/09 06:33:27;;;;;;;3.70;3.15;;;46.50;30.40;;;;;;5034512;28;20021;-86
2021/06/09 06:35:56;;;;;;;11.68;3.33;;;46.50;30.50;;;;;;5036216;28;20384;-85
2021/06/09 06:38:23;;;;;;;4.93;3.43;;;46.30;30.60;;;;;;5034557;28;20030;-87
2021/06/09 06:40:49;;;;;;;4.72;3.80;;;46.10;30.60;;;;;;5033025;28;20072;-87
2021/06/09 06:43:16;;;;;;;4.15;3.25;;;46.00;30.70;;;;;;5034191;28;20044;-82
2021/06/09 06:45:43;;;;;;;3.60;3.15;;;45.90;30.60;;;;;;5034181;28;20032;-83
2021/06/09 06:48:09;;;;;;;3.88;2.95;;;45.80;30.50;;;;;;5034521;28;20418;-85
2021/06/09 06:50:37;;;;;;;4.30;3.03;;;45.60;30.50;;;;;;5052849;28;20041;-83
2021/06/09 06:53:07;;;;;;;3.28;3.08;;;45.50;30.50;;;;;;5054554;28;20112;-85
2021/06/09 06:55:33;;;;;;;3.90;3.25;;;45.40;30.50;;;;;;5054402;28;20040;-81
2021/06/09 06:57:59;;;;;;;3.13;2.90;;;45.30;30.80;;;;;;5054961;28;20025;-81
2021/06/09 07:00:25;;;;;;;4.65;4.15;;;45.20;30.90;;;;;;5053430;28;20021;-80
2021/06/09 07:02:54;;;;;;;5.70;3.30;;;45.10;30.80;;;;;;5052937;28;20096;-80
2021/06/09 07:05:21;;;;;;;3.78;3.47;;;45.00;30.90;;;;;;5053239;28;20067;-79
2021/06/09 07:07:48;;;;;;;5.57;3.78;;;44.90;31.20;;;;;;5053245;28;20033;-80
2021/06/09 07:10:16;;;;;;;5.80;3.15;;;44.90;31.40;;;;;;5053794;28;20092;-79
2021/06/09 07:12:43;;;;;;;6.65;3.58;;;44.70;31.30;;;;;;5056192;28;20029;-80
2021/06/09 07:15:15;;;;;;;13.98;4.70;;;44.60;31.20;;;;;;5063585;28;20025;-79
2021/06/09 07:17:45;;;;;;;6.60;3.90;;;44.50;31.20;;;;;;5060804;28;20025;-79
2021/06/09 07:20:12;;;;;;;3.30;2.95;;;44.40;31.30;;;;;;5059457;28;20021;-79
2021/06/09 07:22:39;;;;;;;6.90;3.45;;;44.20;31.40;;;;;;5057963;28;20031;-80
2021/06/09 07:25:07;;;;;;;3.30;2.40;;;44.20;31.60;;;;;;5058926;28;20103;-79
2021/06/09 07:27:35;;;;;;;2.90;2.70;;;44.00;31.40;;;;;;5052550;28;20063;-80
2021/06/09 07:30:02;;;;;;;3.08;2.70;;;43.90;31.50;;;;;;5053676;28;20021;-80
2021/06/09 07:32:28;;;;;;;4.35;3.28;;;43.60;31.60;;;;;;5053836;28;20104;-81
2021/06/09 07:34:55;;;;;;;7.30;4.15;;;43.40;32.00;;;;;;5052482;28;20452;-80
2021/06/09 07:37:22;;;;;;;4.85;3.50;;;43.30;31.90;;;;;;5053470;28;20079;-81
2021/06/09 07:39:57;;;;;;;4.80;2.97;;;43.00;32.00;;;;;;5052524;28;20060;-81
2021/06/09 07:42:27;;;;;;;5.70;2.92;;;42.90;32.10;;;;;;5051175;28;20029;-80
2021/06/09 07:45:08;;;;;;;8.95;7.22;;;42.70;32.30;;;;;;5051868;28;20116;-81
2021/06/09 07:47:36;;;;;;;9.00;3.63;;;42.50;32.40;;;;;;5051269;28;20025;-81
2021/06/09 07:50:06;;;;;;;7.60;3.53;;;42.30;32.50;;;;;;5050686;28;20487;-80
2021/06/09 07:52:36;;;;;;;5.03;2.63;;;42.10;32.60;;;;;;5051660;28;20043;-81
2021/06/09 07:55:04;;;;;;;2.90;2.70;;;41.90;32.70;;;;;;5052179;28;20040;-80
2021/06/09 07:57:32;;;;;;;3.53;2.80;;;41.70;33.10;;;;;;5050953;28;20059;-81
2021/06/09 08:00:05;;;;;;;2.90;2.70;;;41.30;33.10;;;;;;5051812;28;20145;-80
2021/06/09 08:02:34;;;;;;;3.00;2.80;;;40.90;33.20;;;;;;5050275;28;20055;-81
2021/06/09 08:05:02;;;;;;;5.88;2.50;;;40.50;33.90;;;;;;5051614;28;20083;-80
2021/06/09 08:07:28;;;;;;;3.10;2.80;;;39.90;33.90;;;;;;5050701;28;20025;-81
2021/06/09 08:09:54;;;;;;;3.33;2.90;;;39.30;34.30;;;;;;5050588;28;20029;-80
2021/06/09 08:12:20;;;;;;;8.30;3.20;;;38.70;35.00;;;;;;5051594;28;20379;-79
2021/06/09 08:14:47;;;;;;;3.63;2.85;;;38.30;35.60;;;;;;5051554;28;20028;-80
2021/06/09 08:17:12;;;;;;;3.60;2.90;;;38.00;35.80;;;;;;5050523;28;20032;-82
2021/06/09 08:19:38;;;;;;;5.20;4.15;;;37.70;36.20;;;;;;5051740;28;20025;-82
2021/06/09 08:22:05;;;;;;;6.30;3.30;;;37.60;36.60;;;;;;5052303;28;20384;-81
2021/06/09 08:24:31;;;;;;;7.47;3.10;;;37.40;36.80;;;;;;5051770;28;20021;-82
2021/06/09 08:27:03;;;;;;;6.53;4.25;;;37.20;37.10;;;;;;5051530;28;20032;-80
2021/06/09 08:29:29;;;;;;;3.42;3.03;;;37.00;37.50;;;;;;5050845;28;20021;-81
2021/06/09 08:31:55;;;;;;;4.90;3.47;;;36.90;37.80;;;;;;5050816;28;20132;-80
2021/06/09 08:34:21;;;;;;;3.13;2.88;;;36.70;38.00;;;;;;5050878;28;20112;-83
2021/06/09 08:36:47;;;;;;;8.10;5.47;;;36.50;38.10;;;;;;5050414;28;20170;-80
2021/06/09 08:42:33;;;;;;;5.25;3.42;;;36.20;38.60;;;;;;5053157;28;20530;-82
2021/06/09 08:45:01;;;;;;;5.05;3.20;;;36.00;38.90;;;;;;5051850;28;20040;-80
2021/06/09 08:47:27;;;;;;;4.28;3.60;;;35.90;39.00;;;;;;5051082;28;20017;-81
2021/06/09 08:49:56;;;;;;;7.20;3.47;;;35.80;39.30;;;;;;5051120;28;20484;-81
2021/06/09 08:52:22;;;;;;;3.10;2.85;;;35.70;39.50;;;;;;5050947;28;20044;-81
2021/06/09 08:54:49;;;;;;;5.05;3.47;;;35.50;39.50;;;;;;5050782;28;20060;-80
2021/06/09 08:57:16;;;;;;;3.13;2.90;;;35.40;39.60;;;;;;5050956;28;20091;-82
2021/06/09 08:59:45;;;;;;;7.13;3.35;;;35.10;39.60;;;;;;5049865;28;20440;-80
2021/06/09 09:02:12;;;;;;;6.55;2.85;;;34.80;40.10;;;;;;5051188;28;20124;-80
2021/06/09 09:04:39;;;;;;;10.43;4.45;;;34.70;40.20;;;;;;5050448;28;20074;-81
2021/06/09 09:07:07;;;;;;;3.80;3.38;;;34.60;40.40;;;;;;5054230;28;20048;-81
2021/06/09 09:09:33;;;;;;;3.33;2.90;;;34.50;40.60;;;;;;5057674;28;20143;-79
2021/06/09 09:12:00;;;;;;;4.65;2.85;;;34.40;40.80;;;;;;5057837;28;20032;-79
2021/06/09 09:14:25;;;;;;;7.32;3.22;;;34.30;41.00;;;;;;5062668;28;20521;-80
2021/06/09 09:17:06;;;;;;;6.38;4.13;;;34.20;41.40;;;;;;5059216;28;20024;-80
2021/06/09 09:19:36;;;;;;;4.95;3.90;;;34.20;41.40;;;;;;5057245;28;20375;-80
2021/06/09 09:22:02;;;;;;;3.92;3.53;;;34.20;41.60;;;;;;5056160;28;20525;-80
2021/06/09 09:24:43;;;;;;;6.50;3.05;;;34.10;41.20;;;;;;5056856;28;20021;-84
2021/06/09 09:27:13;;;;;;;4.40;3.95;;;34.00;41.00;;;;;;5056513;28;20104;-80
2021/06/09 09:29:38;;;;;;;3.60;3.03;;;34.00;41.20;;;;;;5055789;28;20108;-80
2021/06/09 09:32:07;;;;;;;4.72;2.90;;;33.90;41.30;;;;;;5054702;28;20112;-81
2021/06/09 09:34:43;;;;;;;3.15;2.85;;;33.90;41.40;;;;;;5054731;28;20090;-81
2021/06/09 09:37:17;;;;;;;8.45;3.65;;;33.80;41.70;;;;;;5054448;28;20053;-81
2021/06/09 09:39:47;;;;;;;2.70;2.50;;;33.70;41.60;;;;;;5054611;28;20047;-80
2021/06/09 09:42:33;;;;;;;8.73;3.90;;;33.70;41.60;;;;;;5054590;28;20065;-81
2021/06/09 09:45:23;;;;;;;5.07;3.00;;;33.60;41.80;;;;;;5054955;28;20033;-81
2021/06/09 09:48:07;;;;;;;3.33;2.95;;;33.50;42.00;;;;;;5055233;28;20037;-81
2021/06/09 09:50:37;;;;;;;5.63;3.20;;;33.40;41.90;;;;;;5054151;28;20045;-80
2021/06/09 09:53:22;;;;;;;3.00;2.70;;;33.30;42.00;;;;;;5054703;28;20143;-80
2021/06/09 09:56:05;;;;;;;2.60;2.40;;;33.20;42.10;;;;;;5054346;28;20442;-80
2021/06/09 09:58:33;;;;;;;4.47;3.38;;;33.10;41.80;;;;;;5054349;28;20052;-81
2021/06/09 10:01:17;;;;;;;4.45;3.30;;;33.00;41.90;;;;;;5054202;28;20013;-79
2021/06/09 10:03:48;;;;;;;3.47;2.80;;;33.00;42.40;;;;;;5054585;28;20037;-80
2021/06/09 10:06:28;;;;;;;4.72;3.30;;;32.90;42.50;;;;;;5053881;28;20031;-80
2021/06/09 10:08:57;;;;;;;5.03;2.50;;;32.80;42.60;;;;;;5054038;28;20104;-80
2021/06/09 10:11:24;;;;;;;5.00;2.67;;;32.60;42.40;;;;;;5053525;28;20028;-79
2021/06/09 10:13:50;;;;;;;5.63;3.03;;;32.50;42.60;;;;;;5054045;28;20024;-81
2021/06/09 10:16:34;;;;;;;3.45;2.50;;;32.40;42.90;;;;;;5053350;28;20028;-80
2021/06/09 10:19:10;;;;;;;2.33;2.13;;;32.30;42.50;;;;;;5053461;28;20108;-80
2021/06/09 10:21:52;;;;;;;3.85;2.78;;;32.10;42.60;;;;;;5053220;28;20021;-81
2021/06/09 10:24:18;;;;;;;5.43;2.80;;;32.00;42.60;;;;;;5053668;28;20036;-84
2021/06/09 10:26:56;;;;;;;5.20;3.00;;;31.90;42.60;;;;;;5053933;28;20029;-82
2021/06/09 10:29:23;;;;;;;6.03;3.10;;;31.80;42.60;;;;;;5052184;28;20056;-78
2021/06/09 10:31:58;;;;;;;4.30;2.70;;;31.70;43.20;;;;;;5052990;28;20055;-79
2021/06/09 10:34:27;;;;;;;4.43;2.70;;;31.60;43.70;;;;;;5052693;28;20490;-79
2021/06/09 10:36:55;;;;;;;5.45;3.28;;;31.60;44.20;;;;;;5053209;28;20103;-77
2021/06/09 10:39:24;;;;;;;7.93;3.30;;;31.50;43.80;;;;;;5053234;28;20021;-78
2021/06/09 10:41:53;;;;;;;8.82;3.20;;;31.40;44.20;;;;;;5053076;28;20071;-79
2021/06/09 10:44:21;;;;;;;3.17;2.88;;;31.40;44.30;;;;;;5054074;28;20104;-80
2021/06/09 10:46:53;;;;;;;3.55;2.83;;;31.40;44.50;;;;;;5055521;28;20037;-77
2021/06/09 10:49:22;;;;;;;3.85;2.70;;;31.30;44.30;;;;;;5053249;28;20049;-77
2021/06/09 10:51:53;;;;;;;4.82;3.45;;;31.20;44.60;;;;;;5052840;28;20117;-78
2021/06/09 10:54:23;;;;;;;6.68;3.25;;;31.10;44.70;;;;;;5052829;28;20017;-78
2021/06/09 10:56:50;;;;;;;3.70;3.17;;;31.00;44.60;;;;;;5052381;28;20070;-79
2021/06/09 10:59:19;;;;;;;6.57;3.67;;;30.90;44.80;;;;;;5052445;28;20020;-79
2021/06/09 11:01:47;;;;;;;7.13;3.10;;;30.90;45.40;;;;;;5052796;28;20021;-79
2021/06/09 11:04:14;;;;;;;5.80;2.90;;;30.90;45.60;;;;;;5052580;28;20108;-79
2021/06/09 11:06:46;;;;;;;3.42;3.00;;;30.90;45.30;;;;;;5051503;28;20025;-78
2021/06/09 11:09:22;;;;;;;8.90;3.10;;;30.90;45.70;;;;;;5052681;28;20028;-76
2021/06/09 11:12:13;;;;;;;3.35;2.80;;;30.90;46.10;;;;;;5052661;28;20086;-75
2021/06/09 11:14:51;;;;;;;3.67;3.10;;;30.70;45.30;;;;;;5052216;28;20163;-74
2021/06/09 11:17:38;;;;;;;5.15;3.85;;;30.60;45.20;;;;;;5052482;28;20059;-75
2021/06/09 11:20:38;;;;;;;5.68;3.20;;;30.60;45.80;;;;;;5052196;28;20021;-75
2021/06/09 11:23:25;;;;;;;7.85;3.55;;;30.40;46.30;;;;;;5030080;28;20168;-74
2021/06/09 11:25:51;;;;;;;6.43;3.63;;;30.50;46.80;;;;;;5052043;28;20023;-75
2021/06/09 11:28:20;;;;;;;6.35;3.97;;;30.70;46.80;;;;;;5051558;28;20086;-76
2021/06/09 11:31:09;;;;;;;6.07;2.80;;;30.80;46.50;;;;;;5051851;28;20211;-75
2021/06/09 11:33:50;;;;;;;2.97;2.78;;;30.90;46.50;;;;;;5046174;28;20036;-75
2021/06/09 11:36:18;;;;;;;3.17;2.90;;;31.00;45.70;;;;;;5052013;28;20045;-75
2021/06/09 11:38:49;;;;;;;2.45;2.35;;;30.90;44.80;;;;;;5051680;28;20017;-75
2021/06/09 11:41:17;;;;;;;6.88;3.63;;;30.90;44.10;;;;;;5051906;28;20559;-75
2021/06/09 11:43:52;;;;;;;3.92;3.63;;;30.80;44.50;;;;;;5051583;28;20475;-75
2021/06/09 11:46:18;;;;;;;7.25;3.38;;;30.70;45.10;;;;;;5050617;28;20132;-75
2021/06/09 11:48:52;;;;;;;3.47;3.15;;;30.60;45.10;;;;;;5051898;28;20468;-76
2021/06/09 11:51:21;;;;;;;2.80;2.60;;;30.50;45.00;;;;;;5052353;28;20028;-82
2021/06/09 11:53:50;;;;;;;4.47;3.80;;;30.40;45.30;;;;;;5051393;28;20029;-80
2021/06/09 11:56:20;;;;;;;5.53;3.78;;;30.40;45.80;;;;;;5052756;28;20021;-82
2021/06/09 11:58:50;;;;;;;3.88;3.50;;;30.40;46.30;;;;;;5052668;28;20024;-82
2021/06/09 12:01:20;;;;;;;6.13;4.53;;;30.30;46.30;;;;;;5052946;28;20045;-81
2021/06/09 12:04:16;;;;;;;5.03;3.45;;;30.40;46.50;;;;;;5051035;28;20037;-81
2021/06/09 12:06:45;;;;;;;3.95;3.40;;;30.30;46.70;;;;;;5052075;28;20491;-82
2021/06/09 12:09:11;;;;;;;3.47;3.10;;;30.20;46.70;;;;;;5051957;28;20048;-81
2021/06/09 12:11:39;;;;;;;6.10;3.10;;;30.10;46.60;;;;;;5051641;28;20501;-82
2021/06/09 12:14:16;;;;;;;3.58;3.28;;;29.90;46.40;;;;;;5051859;28;20103;-82
2021/06/09 12:16:42;;;;;;;3.40;3.20;;;29.80;46.70;;;;;;5051845;28;20410;-81
2021/06/09 12:19:21;;;;;;;3.28;3.03;;;29.70;47.00;;;;;;5051568;28;20071;-82
2021/06/09 12:21:47;;;;;;;4.20;3.80;;;29.70;46.50;;;;;;5051802;28;20071;-82
2021/06/09 12:24:16;;;;;;;7.07;3.67;;;29.60;46.90;;;;;;5051810;28;20025;-80
2021/06/09 12:26:57;;;;;;;5.10;3.70;;;29.70;47.70;;;;;;5050782;28;20028;-81
2021/06/09 12:29:25;;;;;;;6.22;3.70;;;29.70;47.40;;;;;;5052162;28;20021;-80
2021/06/09 12:31:52;;;;;;;8.85;4.20;;;29.70;47.30;;;;;;5049827;28;20033;-80
2021/06/09 12:34:30;;;;;;;8.88;5.65;;;29.80;47.30;;;;;;5050529;28;20021;-81
2021/06/09 12:37:09;;;;;;;8.80;6.13;;;29.90;47.40;;;;;;5050638;28;20024;-81
2021/06/09 12:39:36;;;;;;;10.27;3.95;;;29.80;47.30;;;;;;5051108;28;20032;-80
2021/06/09 12:42:14;;;;;;;5.75;3.25;;;29.80;47.20;;;;;;5054606;28;20462;-81
2021/06/09 12:44:50;;;;;;;4.60;3.60;;;29.80;47.10;;;;;;5054734;28;20414;-80
2021/06/09 12:47:52;;;;;;;6.07;3.70;;;29.80;47.00;;;;;;5054834;28;20021;-76
2021/06/09 12:50:31;;;;;;;7.50;3.92;;;29.80;46.60;;;;;;5012149;28;20492;-75
2021/06/09 12:53:06;;;;;;;4.85;3.45;;;29.90;46.60;;;;;;5049319;28;20045;-75
2021/06/09 12:55:38;;;;;;;6.13;2.78;;;29.90;46.50;;;;;;5053804;28;20079;-77
2021/06/09 12:58:06;;;;;;;5.82;2.95;;;30.10;46.50;;;;;;5053249;28;20025;-76
2021/06/09 13:00:40;;;;;;;5.13;2.90;;;30.20;46.60;;;;;;5054167;28;20025;-76
2021/06/09 13:03:29;;;;;;;6.22;3.70;;;30.20;46.00;;;;;;5054131;28;20029;-76
2021/06/09 13:05:59;;;;;;;7.53;3.45;;;30.10;45.90;;;;;;5054090;28;20053;-79
2021/06/09 13:08:30;;;;;;;9.85;4.03;;;30.00;46.60;;;;;;5052622;28;20017;-77
2021/06/09 13:11:09;;;;;;;21.77;8.55;;;29.80;47.50;;;;;;5053808;28;20371;-76
2021/06/09 13:13:38;;;;;;;14.32;8.65;;;29.50;49.30;;;;;;5054081;28;20502;-76
2021/06/09 13:16:04;;;;;;;6.97;3.80;;;29.30;50.40;;;;;;5052452;28;20025;-77
2021/06/09 13:18:47;;;;;;;4.28;3.83;;;29.00;51.20;;;;;;5054400;28;20754;-85
2021/06/09 13:21:12;;;;;;;7.38;3.47;;;28.70;51.20;;;;;;5056439;28;20021;-82
2021/06/09 13:23:38;;;;;;;9.50;4.97;;;28.50;51.10;;;;;;5055373;28;20479;-83
2021/06/09 13:26:13;;;;;;;5.07;3.25;;;28.30;51.20;;;;;;5056285;28;20031;-85
2021/06/09 13:28:39;;;;;;;6.28;5.68;;;28.00;51.20;;;;;;5066791;28;20106;-83
2021/06/09 13:31:05;;;;;;;8.15;5.20;;;27.80;51.60;;;;;;5070232;28;20067;-81
2021/06/09 13:33:31;;;;;;;5.10;3.20;;;27.70;52.20;;;;;;5070522;28;20029;-81
2021/06/09 13:35:57;;;;;;;4.07;3.20;;;27.50;52.30;;;;;;5070737;28;20025;-81
2021/06/09 13:38:23;;;;;;;5.70;3.60;;;27.50;52.40;;;;;;5063552;28;20025;-81
2021/06/09 13:40:51;;;;;;;4.25;3.10;;;27.40;52.90;;;;;;5056691;28;20039;-83
2021/06/09 13:43:20;;;;;;;4.22;3.50;;;27.40;52.80;;;;;;5060343;28;20041;-83
2021/06/09 13:45:49;;;;;;;6.65;4.72;;;27.40;52.60;;;;;;5056088;28;20063;-83
2021/06/09 13:48:18;;;;;;;3.63;3.28;;;27.50;52.60;;;;;;5056122;28;20463;-82
2021/06/09 13:51:00;;;;;;;14.07;6.25;;;27.50;52.70;;;;;;5055156;28;20440;-83
2021/06/09 13:53:28;;;;;;;4.95;4.05;;;27.60;52.80;;;;;;5053974;28;20048;-82
2021/06/09 13:55:54;;;;;;;6.70;3.72;;;27.60;52.60;;;;;;5052874;28;20422;-83
2021/06/09 13:58:30;;;;;;;13.38;6.20;;;27.60;52.60;;;;;;5054380;28;20098;-83
2021/06/09 14:00:57;;;;;;;7.55;5.10;;;27.60;52.20;;;;;;5054298;28;20032;-84
2021/06/09 14:03:31;;;;;;;8.25;5.95;;;27.60;51.70;;;;;;5054893;28;20025;-83
2021/06/09 14:05:58;;;;;;;4.57;3.63;;;27.60;51.60;;;;;;5055291;28;20036;-84
2021/06/09 14:08:30;;;;;;;9.80;5.40;;;27.60;51.30;;;;;;5053748;28;20021;-85
2021/06/09 14:10:56;;;;;;;5.32;4.00;;;27.60;51.50;;;;;;5054663;28;20021;-84
2021/06/09 14:13:25;;;;;;;5.47;4.15;;;27.60;51.40;;;;;;5054472;28;20097;-82
2021/06/09 14:15:54;;;;;;;6.18;4.28;;;27.50;51.30;;;;;;5054720;28;20021;-82
2021/06/09 14:18:22;;;;;;;8.75;5.68;;;27.50;51.40;;;;;;5053627;28;20013;-82
2021/06/09 14:20:51;;;;;;;8.75;5.45;;;27.50;51.60;;;;;;5053726;28;20089;-83
2021/06/09 14:23:28;;;;;;;7.53;5.20;;;27.50;51.90;;;;;;5053977;28;20017;-82
2021/06/09 14:25:57;;;;;;;5.78;4.30;;;27.40;51.80;;;;;;5053131;28;20370;-82
2021/06/09 14:28:34;;;;;;;5.80;5.05;;;27.40;52.00;;;;;;5053409;28;20097;-82
2021/06/09 14:31:24;;;;;;;5.10;4.30;;;27.40;52.20;;;;;;5052932;28;20141;-81
2021/06/09 14:38:52;;;;;;;4.30;4.00;;;27.30;51.90;;;;;;5053139;28;20090;-82
2021/06/09 14:41:32;;;;;;;12.93;9.25;;;27.20;51.80;;;;;;5052596;28;20017;-81
2021/06/09 14:44:03;;;;;;;10.90;7.45;;;27.20;51.80;;;;;;5053109;28;20517;-82
2021/06/09 14:46:48;;;;;;;19.85;13.63;;;27.30;51.90;;;;;;5052535;28;20534;-76
2021/06/09 14:49:38;;;;;;;13.98;10.18;;;27.20;51.90;;;;;;5052151;28;20056;-76
2021/06/09 14:52:19;;;;;;;20.75;15.65;;;27.20;51.80;;;;;;5051911;28;20025;-79
2021/06/09 14:54:48;;;;;;;19.67;10.60;;;27.30;51.90;;;;;;5052346;28;20028;-77
2021/06/09 14:57:14;;;;;;;22.58;17.17;;;27.30;51.90;;;;;;5052419;28;20455;-76
2021/06/09 15:00:00;;;;;;;12.65;9.38;;;27.20;52.00;;;;;;5052096;28;20070;-75
2021/06/09 15:02:29;;;;;;;17.35;10.95;;;27.30;52.20;;;;;;5051828;28;20507;-76
2021/06/09 15:04:56;;;;;;;18.83;11.52;;;27.30;52.10;;;;;;5051263;28;20090;-77
2021/06/09 15:07:22;;;;;;;12.40;10.15;;;27.30;52.00;;;;;;5051912;28;20487;-77